sensor_id;sensor_type;location;lat;lon;timestamp;P1;durP1;ratioP1;P2;durP2;ratioP2
5722;SDS011;2886;49.722;8.612;2023-06-10T00:02:06;7.27;;;4.70;;
5722;SDS011;2886;49.722;8.612;2023-06-10T00:04:32;7.70;;;5.20;;
5722;SDS011;2886;49.722;8.612;2023-06-10T00:06:58;6.30;;;4.60;;
5722;SDS011;2886;49.722;8.612;2023-06-10T00:09:24;5.30;;;4.60;;
5722;SDS011;2886;49.722;8.612;2023-06-10T00:11:50;6.60;;;4.87;;
5722;SDS011;2886;49.722;8.612;2023-06-10T00:14:16;8.27;;;4.80;;
5722;SDS011;2886;49.722;8.612;2023-06-10T00:16:42;7.20;;;5.03;;
5722;SDS011;2886;49.722;8.612;2023-06-10T00:19:09;9.00;;;5.00;;
5722;SDS011;2886;49.722;8.612;2023-06-10T00:21:39;7.57;;;5.37;;
5722;SDS011;2886;49.722;8.612;2023-06-10T00:24:09;7.17;;;5.30;;
5722;SDS011;2886;49.722;8.612;2023-06-10T00:26:37;11.50;;;6.13;;
5722;SDS011;2886;49.722;8.612;2023-06-10T00:29:04;8.00;;;5.67;;
5722;SDS011;2886;49.722;8.612;2023-06-10T00:31:30;9.43;;;5.03;;
5722;SDS011;2886;49.722;8.612;2023-06-10T00:33:55;9.17;;;6.13;;
5722;SDS011;2886;49.722;8.612;2023-06-10T00:36:21;7.20;;;5.50;;
5722;SDS011;2886;49.722;8.612;2023-06-10T00:38:47;15.57;;;5.50;;
5722;SDS011;2886;49.722;8.612;2023-06-10T00:41:13;8.80;;;5.57;;
5722;SDS011;2886;49.722;8.612;2023-06-10T00:43:39;6.67;;;5.30;;
5722;SDS011;2886;49.722;8.612;2023-06-10T00:46:04;7.50;;;5.60;;
5722;SDS011;2886;49.722;8.612;2023-06-10T00:48:30;7.57;;;5.63;;
5722;SDS011;2886;49.722;8.612;2023-06-10T00:50:57;7.20;;;5.00;;
5722;SDS011;2886;49.722;8.612;2023-06-10T00:53:23;7.20;;;5.50;;
5722;SDS011;2886;49.722;8.612;2023-06-10T00:55:50;6.50;;;5.10;;
5722;SDS011;2886;49.722;8.612;2023-06-10T00:58:16;5.90;;;4.90;;
5722;SDS011;2886;49.722;8.612;2023-06-10T01:00:42;6.50;;;4.97;;
5722;SDS011;2886;49.722;8.612;2023-06-10T01:03:07;9.87;;;5.60;;
5722;SDS011;2886;49.722;8.612;2023-06-10T01:05:36;8.27;;;5.27;;
5722;SDS011;2886;49.722;8.612;2023-06-10T01:08:03;7.60;;;5.63;;
5722;SDS011;2886;49.722;8.612;2023-06-10T01:10:38;6.40;;;5.30;;
5722;SDS011;2886;49.722;8.612;2023-06-10T01:13:09;8.03;;;4.90;;
5722;SDS011;2886;49.722;8.612;2023-06-10T01:15:37;6.23;;;5.33;;
5722;SDS011;2886;49.722;8.612;2023-06-10T01:18:04;10.43;;;5.80;;
5722;SDS011;2886;49.722;8.612;2023-06-10T01:20:34;7.77;;;5.10;;
5722;SDS011;2886;49.722;8.612;2023-06-10T01:23:06;7.20;;;4.50;;
5722;SDS011;2886;49.722;8.612;2023-06-10T01:25:32;9.40;;;5.27;;
5722;SDS011;2886;49.722;8.612;2023-06-10T01:30:43;5.77;;;4.67;;
5722;SDS011;2886;49.722;8.612;2023-06-10T01:33:28;10.10;;;5.90;;
5722;SDS011;2886;49.722;8.612;2023-06-10T01:35:57;8.57;;;6.07;;
5722;SDS011;2886;49.722;8.612;2023-06-10T01:38:24;7.60;;;5.90;;
5722;SDS011;2886;49.722;8.612;2023-06-10T01:40:53;7.10;;;5.67;;
5722;SDS011;2886;49.722;8.612;2023-06-10T01:43:20;9.00;;;6.77;;
5722;SDS011;2886;49.722;8.612;2023-06-10T01:45:46;7.50;;;6.17;;
5722;SDS011;2886;49.722;8.612;2023-06-10T01:48:12;7.70;;;6.80;;
5722;SDS011;2886;49.722;8.612;2023-06-10T01:50:37;9.60;;;6.50;;
5722;SDS011;2886;49.722;8.612;2023-06-10T01:53:04;11.43;;;6.10;;
5722;SDS011;2886;49.722;8.612;2023-06-10T01:55:30;9.30;;;6.60;;
5722;SDS011;2886;49.722;8.612;2023-06-10T01:57:56;9.10;;;6.07;;
5722;SDS011;2886;49.722;8.612;2023-06-10T02:00:22;13.33;;;7.50;;
5722;SDS011;2886;49.722;8.612;2023-06-10T02:02:47;8.50;;;7.03;;
5722;SDS011;2886;49.722;8.612;2023-06-10T02:05:13;10.37;;;6.67;;
5722;SDS011;2886;49.722;8.612;2023-06-10T02:07:39;8.20;;;6.60;;
5722;SDS011;2886;49.722;8.612;2023-06-10T02:10:05;7.77;;;6.40;;
5722;SDS011;2886;49.722;8.612;2023-06-10T02:12:32;11.60;;;7.50;;
5722;SDS011;2886;49.722;8.612;2023-06-10T02:14:57;8.90;;;6.47;;
5722;SDS011;2886;49.722;8.612;2023-06-10T02:17:23;8.60;;;6.20;;
5722;SDS011;2886;49.722;8.612;2023-06-10T02:19:49;8.80;;;6.20;;
5722;SDS011;2886;49.722;8.612;2023-06-10T02:22:22;7.30;;;5.67;;
5722;SDS011;2886;49.722;8.612;2023-06-10T02:24:54;11.63;;;6.50;;
5722;SDS011;2886;49.722;8.612;2023-06-10T02:27:20;7.63;;;6.37;;
5722;SDS011;2886;49.722;8.612;2023-06-10T02:29:46;8.37;;;6.50;;
5722;SDS011;2886;49.722;8.612;2023-06-10T02:32:11;11.20;;;6.43;;
5722;SDS011;2886;49.722;8.612;2023-06-10T02:34:37;8.00;;;7.03;;
5722;SDS011;2886;49.722;8.612;2023-06-10T02:37:03;9.47;;;6.63;;
5722;SDS011;2886;49.722;8.612;2023-06-10T02:39:29;8.07;;;6.27;;
5722;SDS011;2886;49.722;8.612;2023-06-10T02:41:54;5.83;;;5.10;;
5722;SDS011;2886;49.722;8.612;2023-06-10T02:44:20;9.17;;;5.67;;
5722;SDS011;2886;49.722;8.612;2023-06-10T02:46:46;11.60;;;7.00;;
5722;SDS011;2886;49.722;8.612;2023-06-10T02:49:12;9.63;;;6.00;;
5722;SDS011;2886;49.722;8.612;2023-06-10T02:51:38;9.40;;;7.03;;
5722;SDS011;2886;49.722;8.612;2023-06-10T02:54:04;8.23;;;5.67;;
5722;SDS011;2886;49.722;8.612;2023-06-10T02:56:30;11.10;;;7.27;;
5722;SDS011;2886;49.722;8.612;2023-06-10T02:58:56;8.33;;;6.83;;
5722;SDS011;2886;49.722;8.612;2023-06-10T03:01:22;9.50;;;6.60;;
5722;SDS011;2886;49.722;8.612;2023-06-10T03:03:48;10.63;;;6.30;;
5722;SDS011;2886;49.722;8.612;2023-06-10T03:06:15;8.93;;;6.63;;
5722;SDS011;2886;49.722;8.612;2023-06-10T03:08:41;8.97;;;5.80;;
5722;SDS011;2886;49.722;8.612;2023-06-10T03:11:07;7.80;;;5.30;;
5722;SDS011;2886;49.722;8.612;2023-06-10T03:13:33;10.60;;;6.47;;
5722;SDS011;2886;49.722;8.612;2023-06-10T03:15:59;8.00;;;5.80;;
5722;SDS011;2886;49.722;8.612;2023-06-10T03:18:25;8.27;;;6.30;;
5722;SDS011;2886;49.722;8.612;2023-06-10T03:20:52;10.03;;;7.23;;
5722;SDS011;2886;49.722;8.612;2023-06-10T03:23:18;10.27;;;6.70;;
5722;SDS011;2886;49.722;8.612;2023-06-10T03:25:44;11.03;;;6.77;;
5722;SDS011;2886;49.722;8.612;2023-06-10T03:28:10;11.10;;;6.50;;
5722;SDS011;2886;49.722;8.612;2023-06-10T03:30:35;8.20;;;6.40;;
5722;SDS011;2886;49.722;8.612;2023-06-10T03:33:01;7.10;;;5.90;;
5722;SDS011;2886;49.722;8.612;2023-06-10T03:35:27;7.77;;;6.20;;
5722;SDS011;2886;49.722;8.612;2023-06-10T03:37:52;9.33;;;5.90;;
5722;SDS011;2886;49.722;8.612;2023-06-10T03:40:18;10.07;;;7.10;;
5722;SDS011;2886;49.722;8.612;2023-06-10T03:42:44;10.00;;;6.70;;
5722;SDS011;2886;49.722;8.612;2023-06-10T03:45:09;8.83;;;6.57;;
5722;SDS011;2886;49.722;8.612;2023-06-10T03:47:36;8.60;;;6.63;;
5722;SDS011;2886;49.722;8.612;2023-06-10T03:50:05;10.23;;;6.57;;
5722;SDS011;2886;49.722;8.612;2023-06-10T03:52:33;13.83;;;6.50;;
5722;SDS011;2886;49.722;8.612;2023-06-10T03:54:59;13.20;;;7.30;;
5722;SDS011;2886;49.722;8.612;2023-06-10T03:57:25;9.33;;;7.03;;
5722;SDS011;2886;49.722;8.612;2023-06-10T03:59:51;11.97;;;7.43;;
5722;SDS011;2886;49.722;8.612;2023-06-10T04:02:17;9.67;;;7.03;;
5722;SDS011;2886;49.722;8.612;2023-06-10T04:04:42;10.50;;;7.20;;
5722;SDS011;2886;49.722;8.612;2023-06-10T04:07:09;8.43;;;7.10;;
5722;SDS011;2886;49.722;8.612;2023-06-10T04:09:34;11.57;;;7.90;;
5722;SDS011;2886;49.722;8.612;2023-06-10T04:12:03;10.97;;;8.50;;
5722;SDS011;2886;49.722;8.612;2023-06-10T04:14:33;12.33;;;8.80;;
5722;SDS011;2886;49.722;8.612;2023-06-10T04:17:01;10.40;;;8.07;;
5722;SDS011;2886;49.722;8.612;2023-06-10T04:19:27;11.60;;;8.50;;
5722;SDS011;2886;49.722;8.612;2023-06-10T04:21:53;13.30;;;7.60;;
5722;SDS011;2886;49.722;8.612;2023-06-10T04:24:19;24.33;;;8.10;;
5722;SDS011;2886;49.722;8.612;2023-06-10T04:26:44;12.23;;;8.60;;
5722;SDS011;2886;49.722;8.612;2023-06-10T04:29:10;9.77;;;7.70;;
5722;SDS011;2886;49.722;8.612;2023-06-10T04:31:36;8.50;;;7.30;;
5722;SDS011;2886;49.722;8.612;2023-06-10T04:34:01;9.23;;;7.30;;
5722;SDS011;2886;49.722;8.612;2023-06-10T04:36:27;13.83;;;9.13;;
5722;SDS011;2886;49.722;8.612;2023-06-10T04:38:55;12.00;;;8.83;;
5722;SDS011;2886;49.722;8.612;2023-06-10T04:41:20;13.10;;;8.20;;
5722;SDS011;2886;49.722;8.612;2023-06-10T04:43:47;12.93;;;7.20;;
5722;SDS011;2886;49.722;8.612;2023-06-10T04:46:12;10.07;;;8.10;;
5722;SDS011;2886;49.722;8.612;2023-06-10T04:48:38;10.10;;;8.13;;
5722;SDS011;2886;49.722;8.612;2023-06-10T04:51:04;7.80;;;6.77;;
5722;SDS011;2886;49.722;8.612;2023-06-10T04:53:30;8.47;;;7.07;;
5722;SDS011;2886;49.722;8.612;2023-06-10T04:55:56;11.17;;;7.80;;
5722;SDS011;2886;49.722;8.612;2023-06-10T04:58:22;8.43;;;7.07;;
5722;SDS011;2886;49.722;8.612;2023-06-10T05:00:48;10.80;;;7.20;;
5722;SDS011;2886;49.722;8.612;2023-06-10T05:03:14;10.90;;;8.77;;
5722;SDS011;2886;49.722;8.612;2023-06-10T05:05:40;12.83;;;7.77;;
5722;SDS011;2886;49.722;8.612;2023-06-10T05:08:05;11.33;;;7.50;;
5722;SDS011;2886;49.722;8.612;2023-06-10T05:10:31;10.00;;;6.93;;
5722;SDS011;2886;49.722;8.612;2023-06-10T05:12:57;9.00;;;7.33;;
5722;SDS011;2886;49.722;8.612;2023-06-10T05:15:23;9.73;;;6.30;;
5722;SDS011;2886;49.722;8.612;2023-06-10T05:17:49;10.50;;;6.90;;
5722;SDS011;2886;49.722;8.612;2023-06-10T05:20:15;9.07;;;6.23;;
5722;SDS011;2886;49.722;8.612;2023-06-10T05:22:41;8.30;;;6.90;;
5722;SDS011;2886;49.722;8.612;2023-06-10T05:25:06;8.63;;;6.50;;
5722;SDS011;2886;49.722;8.612;2023-06-10T05:27:32;11.47;;;6.87;;
5722;SDS011;2886;49.722;8.612;2023-06-10T05:29:58;11.27;;;6.63;;
5722;SDS011;2886;49.722;8.612;2023-06-10T05:32:24;8.50;;;6.37;;
5722;SDS011;2886;49.722;8.612;2023-06-10T05:34:49;8.00;;;6.37;;
5722;SDS011;2886;49.722;8.612;2023-06-10T05:37:15;8.30;;;5.97;;
5722;SDS011;2886;49.722;8.612;2023-06-10T05:39:41;7.83;;;6.00;;
5722;SDS011;2886;49.722;8.612;2023-06-10T05:42:07;9.80;;;6.80;;
5722;SDS011;2886;49.722;8.612;2023-06-10T05:44:34;9.30;;;6.67;;
5722;SDS011;2886;49.722;8.612;2023-06-10T05:47:00;12.80;;;7.00;;
5722;SDS011;2886;49.722;8.612;2023-06-10T05:49:26;5.90;;;5.30;;
5722;SDS011;2886;49.722;8.612;2023-06-10T05:51:52;8.07;;;6.80;;
5722;SDS011;2886;49.722;8.612;2023-06-10T05:54:18;5.93;;;5.33;;
5722;SDS011;2886;49.722;8.612;2023-06-10T05:56:44;6.27;;;5.67;;
5722;SDS011;2886;49.722;8.612;2023-06-10T05:59:09;10.63;;;6.50;;
5722;SDS011;2886;49.722;8.612;2023-06-10T06:01:35;7.57;;;5.53;;
5722;SDS011;2886;49.722;8.612;2023-06-10T06:04:01;9.07;;;6.40;;
5722;SDS011;2886;49.722;8.612;2023-06-10T06:06:26;9.63;;;7.47;;
5722;SDS011;2886;49.722;8.612;2023-06-10T06:08:52;16.47;;;7.53;;
5722;SDS011;2886;49.722;8.612;2023-06-10T06:11:18;8.17;;;6.00;;
5722;SDS011;2886;49.722;8.612;2023-06-10T06:13:43;7.57;;;6.50;;
5722;SDS011;2886;49.722;8.612;2023-06-10T06:16:09;10.63;;;7.00;;
5722;SDS011;2886;49.722;8.612;2023-06-10T06:18:35;9.30;;;6.53;;
5722;SDS011;2886;49.722;8.612;2023-06-10T06:21:00;11.20;;;6.40;;
5722;SDS011;2886;49.722;8.612;2023-06-10T06:23:26;7.00;;;6.17;;
5722;SDS011;2886;49.722;8.612;2023-06-10T06:25:51;6.83;;;6.03;;
5722;SDS011;2886;49.722;8.612;2023-06-10T06:28:17;7.37;;;6.40;;
5722;SDS011;2886;49.722;8.612;2023-06-10T06:30:44;9.97;;;6.53;;
5722;SDS011;2886;49.722;8.612;2023-06-10T06:33:09;6.53;;;5.83;;
5722;SDS011;2886;49.722;8.612;2023-06-10T06:35:35;7.87;;;6.67;;
5722;SDS011;2886;49.722;8.612;2023-06-10T06:38:03;6.63;;;5.50;;
5722;SDS011;2886;49.722;8.612;2023-06-10T06:40:29;7.00;;;6.27;;
5722;SDS011;2886;49.722;8.612;2023-06-10T06:42:54;7.90;;;5.90;;
5722;SDS011;2886;49.722;8.612;2023-06-10T06:45:20;7.60;;;5.60;;
5722;SDS011;2886;49.722;8.612;2023-06-10T06:47:46;6.77;;;5.67;;
5722;SDS011;2886;49.722;8.612;2023-06-10T06:50:12;7.20;;;5.87;;
5722;SDS011;2886;49.722;8.612;2023-06-10T06:52:37;7.40;;;5.60;;
5722;SDS011;2886;49.722;8.612;2023-06-10T06:55:03;8.43;;;5.37;;
5722;SDS011;2886;49.722;8.612;2023-06-10T06:57:29;5.50;;;5.00;;
5722;SDS011;2886;49.722;8.612;2023-06-10T06:59:54;9.97;;;5.57;;
5722;SDS011;2886;49.722;8.612;2023-06-10T07:02:20;6.17;;;5.50;;
5722;SDS011;2886;49.722;8.612;2023-06-10T07:04:46;21.63;;;5.83;;
5722;SDS011;2886;49.722;8.612;2023-06-10T07:07:15;5.83;;;5.27;;
5722;SDS011;2886;49.722;8.612;2023-06-10T07:09:41;8.60;;;6.13;;
5722;SDS011;2886;49.722;8.612;2023-06-10T07:12:06;5.97;;;5.47;;
5722;SDS011;2886;49.722;8.612;2023-06-10T07:14:32;6.23;;;5.53;;
5722;SDS011;2886;49.722;8.612;2023-06-10T07:16:58;6.37;;;5.00;;
5722;SDS011;2886;49.722;8.612;2023-06-10T07:19:24;6.67;;;5.53;;
5722;SDS011;2886;49.722;8.612;2023-06-10T07:21:49;7.13;;;5.80;;
5722;SDS011;2886;49.722;8.612;2023-06-10T07:24:15;6.70;;;6.00;;
5722;SDS011;2886;49.722;8.612;2023-06-10T07:26:41;6.90;;;6.27;;
5722;SDS011;2886;49.722;8.612;2023-06-10T07:29:06;10.77;;;5.47;;
5722;SDS011;2886;49.722;8.612;2023-06-10T07:31:32;8.20;;;6.60;;
5722;SDS011;2886;49.722;8.612;2023-06-10T07:33:58;8.77;;;5.87;;
5722;SDS011;2886;49.722;8.612;2023-06-10T07:36:23;6.20;;;5.60;;
5722;SDS011;2886;49.722;8.612;2023-06-10T07:38:52;6.10;;;5.40;;
5722;SDS011;2886;49.722;8.612;2023-06-10T07:41:18;12.40;;;5.90;;
5722;SDS011;2886;49.722;8.612;2023-06-10T07:43:44;8.63;;;6.40;;
5722;SDS011;2886;49.722;8.612;2023-06-10T07:46:10;6.50;;;5.73;;
5722;SDS011;2886;49.722;8.612;2023-06-10T07:48:36;5.80;;;5.20;;
5722;SDS011;2886;49.722;8.612;2023-06-10T07:51:01;8.30;;;4.90;;
5722;SDS011;2886;49.722;8.612;2023-06-10T07:53:27;6.90;;;5.70;;
5722;SDS011;2886;49.722;8.612;2023-06-10T07:55:53;8.57;;;6.00;;
5722;SDS011;2886;49.722;8.612;2023-06-10T07:58:19;8.07;;;6.23;;
5722;SDS011;2886;49.722;8.612;2023-06-10T08:00:44;9.23;;;6.23;;
5722;SDS011;2886;49.722;8.612;2023-06-10T08:03:11;7.50;;;6.00;;
5722;SDS011;2886;49.722;8.612;2023-06-10T08:05:39;10.47;;;6.63;;
5722;SDS011;2886;49.722;8.612;2023-06-10T08:08:05;6.53;;;5.87;;
5722;SDS011;2886;49.722;8.612;2023-06-10T08:10:30;9.00;;;6.13;;
5722;SDS011;2886;49.722;8.612;2023-06-10T08:12:56;7.60;;;5.80;;
5722;SDS011;2886;49.722;8.612;2023-06-10T08:15:22;9.77;;;6.20;;
5722;SDS011;2886;49.722;8.612;2023-06-10T08:17:47;6.67;;;5.90;;
5722;SDS011;2886;49.722;8.612;2023-06-10T08:20:13;7.50;;;6.70;;
5722;SDS011;2886;49.722;8.612;2023-06-10T08:22:39;8.07;;;5.93;;
5722;SDS011;2886;49.722;8.612;2023-06-10T08:25:04;8.33;;;6.30;;
5722;SDS011;2886;49.722;8.612;2023-06-10T08:27:30;15.10;;;5.67;;
5722;SDS011;2886;49.722;8.612;2023-06-10T08:29:56;8.40;;;4.90;;
5722;SDS011;2886;49.722;8.612;2023-06-10T08:32:23;7.50;;;6.00;;
5722;SDS011;2886;49.722;8.612;2023-06-10T08:34:48;8.00;;;5.80;;
5722;SDS011;2886;49.722;8.612;2023-06-10T08:37:14;15.10;;;5.97;;
5722;SDS011;2886;49.722;8.612;2023-06-10T08:39:39;9.27;;;6.40;;
5722;SDS011;2886;49.722;8.612;2023-06-10T08:44:36;10.07;;;6.43;;
5722;SDS011;2886;49.722;8.612;2023-06-10T08:47:14;8.27;;;6.43;;
5722;SDS011;2886;49.722;8.612;2023-06-10T08:49:43;8.40;;;6.00;;
5722;SDS011;2886;49.722;8.612;2023-06-10T08:52:11;10.10;;;6.40;;
5722;SDS011;2886;49.722;8.612;2023-06-10T08:54:43;9.30;;;6.40;;
5722;SDS011;2886;49.722;8.612;2023-06-10T08:57:19;9.53;;;6.20;;
5722;SDS011;2886;49.722;8.612;2023-06-10T08:59:46;7.97;;;6.50;;
5722;SDS011;2886;49.722;8.612;2023-06-10T09:02:13;7.17;;;6.23;;
5722;SDS011;2886;49.722;8.612;2023-06-10T09:04:40;7.87;;;6.57;;
5722;SDS011;2886;49.722;8.612;2023-06-10T09:07:08;10.87;;;7.40;;
5722;SDS011;2886;49.722;8.612;2023-06-10T09:09:34;9.70;;;6.93;;
5722;SDS011;2886;49.722;8.612;2023-06-10T09:12:00;8.23;;;6.63;;
5722;SDS011;2886;49.722;8.612;2023-06-10T09:14:26;7.43;;;6.60;;
5722;SDS011;2886;49.722;8.612;2023-06-10T09:16:52;8.33;;;7.00;;
5722;SDS011;2886;49.722;8.612;2023-06-10T09:19:21;6.60;;;5.90;;
5722;SDS011;2886;49.722;8.612;2023-06-10T09:21:49;7.80;;;6.63;;
5722;SDS011;2886;49.722;8.612;2023-06-10T09:24:15;9.03;;;6.90;;
5722;SDS011;2886;49.722;8.612;2023-06-10T09:26:41;8.47;;;7.37;;
5722;SDS011;2886;49.722;8.612;2023-06-10T09:29:07;13.27;;;7.60;;
5722;SDS011;2886;49.722;8.612;2023-06-10T09:31:35;8.03;;;6.87;;
5722;SDS011;2886;49.722;8.612;2023-06-10T09:34:12;19.17;;;7.30;;
5722;SDS011;2886;49.722;8.612;2023-06-10T09:36:40;8.73;;;6.73;;
5722;SDS011;2886;49.722;8.612;2023-06-10T09:39:13;7.80;;;6.57;;
5722;SDS011;2886;49.722;8.612;2023-06-10T09:41:41;7.07;;;6.37;;
5722;SDS011;2886;49.722;8.612;2023-06-10T09:44:17;10.43;;;6.67;;
5722;SDS011;2886;49.722;8.612;2023-06-10T09:46:46;7.63;;;6.83;;
5722;SDS011;2886;49.722;8.612;2023-06-10T09:49:13;18.83;;;7.07;;
5722;SDS011;2886;49.722;8.612;2023-06-10T09:51:52;8.13;;;6.70;;
5722;SDS011;2886;49.722;8.612;2023-06-10T09:54:19;7.40;;;6.60;;
5722;SDS011;2886;49.722;8.612;2023-06-10T09:56:48;7.17;;;6.00;;
5722;SDS011;2886;49.722;8.612;2023-06-10T09:59:15;6.87;;;5.70;;
5722;SDS011;2886;49.722;8.612;2023-06-10T10:01:41;7.20;;;5.40;;
5722;SDS011;2886;49.722;8.612;2023-06-10T10:04:06;6.37;;;5.30;;
5722;SDS011;2886;49.722;8.612;2023-06-10T10:06:32;5.77;;;4.90;;
5722;SDS011;2886;49.722;8.612;2023-06-10T10:08:59;6.70;;;5.17;;
5722;SDS011;2886;49.722;8.612;2023-06-10T10:11:25;5.63;;;4.43;;
5722;SDS011;2886;49.722;8.612;2023-06-10T10:13:52;4.90;;;4.40;;
5722;SDS011;2886;49.722;8.612;2023-06-10T10:16:22;5.80;;;4.50;;
5722;SDS011;2886;49.722;8.612;2023-06-10T10:18:56;8.50;;;4.90;;
5722;SDS011;2886;49.722;8.612;2023-06-10T10:21:27;6.23;;;4.77;;
5722;SDS011;2886;49.722;8.612;2023-06-10T10:26:42;5.90;;;4.90;;
5722;SDS011;2886;49.722;8.612;2023-06-10T10:29:13;5.17;;;4.70;;
5722;SDS011;2886;49.722;8.612;2023-06-10T10:31:45;6.33;;;5.03;;
5722;SDS011;2886;49.722;8.612;2023-06-10T10:34:15;7.37;;;5.30;;
5722;SDS011;2886;49.722;8.612;2023-06-10T10:36:43;5.87;;;5.20;;
5722;SDS011;2886;49.722;8.612;2023-06-10T10:39:10;5.50;;;5.00;;
5722;SDS011;2886;49.722;8.612;2023-06-10T10:41:37;6.03;;;5.40;;
5722;SDS011;2886;49.722;8.612;2023-06-10T10:44:05;6.27;;;4.70;;
5722;SDS011;2886;49.722;8.612;2023-06-10T10:46:41;9.43;;;5.47;;
5722;SDS011;2886;49.722;8.612;2023-06-10T10:49:19;13.30;;;5.43;;
5722;SDS011;2886;49.722;8.612;2023-06-10T10:51:57;7.60;;;5.33;;
5722;SDS011;2886;49.722;8.612;2023-06-10T10:54:31;7.33;;;5.30;;
5722;SDS011;2886;49.722;8.612;2023-06-10T10:57:14;5.60;;;5.10;;
5722;SDS011;2886;49.722;8.612;2023-06-10T10:59:56;6.67;;;5.10;;
5722;SDS011;2886;49.722;8.612;2023-06-10T11:02:45;6.27;;;4.43;;
5722;SDS011;2886;49.722;8.612;2023-06-10T11:05:15;8.50;;;4.90;;
5722;SDS011;2886;49.722;8.612;2023-06-10T11:07:51;7.57;;;5.80;;
5722;SDS011;2886;49.722;8.612;2023-06-10T11:10:28;7.13;;;5.23;;
5722;SDS011;2886;49.722;8.612;2023-06-10T11:12:58;5.40;;;4.90;;
5722;SDS011;2886;49.722;8.612;2023-06-10T11:15:28;9.47;;;5.43;;
5722;SDS011;2886;49.722;8.612;2023-06-10T11:18:07;7.20;;;4.77;;
5722;SDS011;2886;49.722;8.612;2023-06-10T11:28:41;4.50;;;4.10;;
5722;SDS011;2886;49.722;8.612;2023-06-10T11:31:29;4.63;;;4.03;;
5722;SDS011;2886;49.722;8.612;2023-06-10T11:34:00;4.70;;;4.13;;
5722;SDS011;2886;49.722;8.612;2023-06-10T11:36:30;9.13;;;4.87;;
5722;SDS011;2886;49.722;8.612;2023-06-10T11:38:57;5.73;;;4.03;;
5722;SDS011;2886;49.722;8.612;2023-06-10T11:41:28;4.13;;;3.73;;
5722;SDS011;2886;49.722;8.612;2023-06-10T11:43:56;5.47;;;3.93;;
5722;SDS011;2886;49.722;8.612;2023-06-10T11:46:25;5.90;;;4.13;;
5722;SDS011;2886;49.722;8.612;2023-06-10T11:48:55;4.80;;;4.30;;
5722;SDS011;2886;49.722;8.612;2023-06-10T11:51:21;4.40;;;4.00;;
5722;SDS011;2886;49.722;8.612;2023-06-10T11:53:50;4.10;;;3.70;;
5722;SDS011;2886;49.722;8.612;2023-06-10T11:56:19;4.67;;;3.70;;
5722;SDS011;2886;49.722;8.612;2023-06-10T11:58:51;6.37;;;3.83;;
5722;SDS011;2886;49.722;8.612;2023-06-10T12:01:19;4.60;;;3.63;;
5722;SDS011;2886;49.722;8.612;2023-06-10T12:03:57;4.00;;;3.60;;
5722;SDS011;2886;49.722;8.612;2023-06-10T12:06:24;6.10;;;4.00;;
5722;SDS011;2886;49.722;8.612;2023-06-10T12:08:50;5.10;;;4.37;;
5722;SDS011;2886;49.722;8.612;2023-06-10T12:11:16;5.30;;;4.07;;
5722;SDS011;2886;49.722;8.612;2023-06-10T12:13:45;5.43;;;4.17;;
5722;SDS011;2886;49.722;8.612;2023-06-10T12:16:13;5.53;;;3.80;;
5722;SDS011;2886;49.722;8.612;2023-06-10T12:18:39;7.90;;;3.90;;
5722;SDS011;2886;49.722;8.612;2023-06-10T12:21:26;4.03;;;3.60;;
5722;SDS011;2886;49.722;8.612;2023-06-10T12:24:04;5.20;;;3.53;;
5722;SDS011;2886;49.722;8.612;2023-06-10T12:27:04;5.20;;;4.00;;
5722;SDS011;2886;49.722;8.612;2023-06-10T12:29:24;4.50;;;4.10;;
5722;SDS011;2886;49.722;8.612;2023-06-10T12:34:32;5.30;;;3.80;;
5722;SDS011;2886;49.722;8.612;2023-06-10T12:36:58;8.80;;;4.23;;
5722;SDS011;2886;49.722;8.612;2023-06-10T12:39:24;4.47;;;4.03;;
5722;SDS011;2886;49.722;8.612;2023-06-10T12:41:53;5.50;;;4.13;;
5722;SDS011;2886;49.722;8.612;2023-06-10T12:44:28;4.73;;;3.97;;
5722;SDS011;2886;49.722;8.612;2023-06-10T12:46:57;4.17;;;3.80;;
5722;SDS011;2886;49.722;8.612;2023-06-10T12:49:23;4.57;;;3.93;;
5722;SDS011;2886;49.722;8.612;2023-06-10T12:51:50;5.17;;;4.10;;
5722;SDS011;2886;49.722;8.612;2023-06-10T12:54:15;6.17;;;3.73;;
5722;SDS011;2886;49.722;8.612;2023-06-10T12:56:41;4.30;;;3.90;;
5722;SDS011;2886;49.722;8.612;2023-06-10T12:59:06;5.07;;;3.93;;
5722;SDS011;2886;49.722;8.612;2023-06-10T13:01:32;5.20;;;3.97;;
5722;SDS011;2886;49.722;8.612;2023-06-10T13:03:58;4.33;;;3.93;;
5722;SDS011;2886;49.722;8.612;2023-06-10T13:06:24;4.93;;;4.47;;
5722;SDS011;2886;49.722;8.612;2023-06-10T13:08:50;5.70;;;4.10;;
5722;SDS011;2886;49.722;8.612;2023-06-10T13:11:16;5.07;;;3.90;;
5722;SDS011;2886;49.722;8.612;2023-06-10T13:13:42;5.47;;;3.97;;
5722;SDS011;2886;49.722;8.612;2023-06-10T13:16:07;3.93;;;3.63;;
5722;SDS011;2886;49.722;8.612;2023-06-10T13:18:33;11.60;;;3.97;;
5722;SDS011;2886;49.722;8.612;2023-06-10T13:21:05;3.80;;;3.40;;
5722;SDS011;2886;49.722;8.612;2023-06-10T13:23:31;4.50;;;3.97;;
5722;SDS011;2886;49.722;8.612;2023-06-10T13:25:57;4.33;;;3.63;;
5722;SDS011;2886;49.722;8.612;2023-06-10T13:28:24;5.20;;;3.87;;
5722;SDS011;2886;49.722;8.612;2023-06-10T13:30:50;7.03;;;3.87;;
5722;SDS011;2886;49.722;8.612;2023-06-10T13:33:16;6.53;;;4.03;;
5722;SDS011;2886;49.722;8.612;2023-06-10T13:35:41;5.13;;;3.63;;
5722;SDS011;2886;49.722;8.612;2023-06-10T13:38:07;4.97;;;3.43;;
5722;SDS011;2886;49.722;8.612;2023-06-10T13:40:33;4.97;;;3.80;;
5722;SDS011;2886;49.722;8.612;2023-06-10T13:42:58;5.07;;;4.10;;
5722;SDS011;2886;49.722;8.612;2023-06-10T13:45:24;5.77;;;3.93;;
5722;SDS011;2886;49.722;8.612;2023-06-10T13:47:50;4.03;;;3.63;;
5722;SDS011;2886;49.722;8.612;2023-06-10T13:50:16;6.63;;;4.00;;
5722;SDS011;2886;49.722;8.612;2023-06-10T13:52:42;4.10;;;3.73;;
5722;SDS011;2886;49.722;8.612;2023-06-10T13:55:07;4.17;;;3.77;;
5722;SDS011;2886;49.722;8.612;2023-06-10T13:57:33;6.03;;;4.33;;
5722;SDS011;2886;49.722;8.612;2023-06-10T13:59:59;3.97;;;3.60;;
5722;SDS011;2886;49.722;8.612;2023-06-10T14:02:25;4.80;;;3.63;;
5722;SDS011;2886;49.722;8.612;2023-06-10T14:04:50;5.50;;;4.10;;
5722;SDS011;2886;49.722;8.612;2023-06-10T14:07:16;4.80;;;4.30;;
5722;SDS011;2886;49.722;8.612;2023-06-10T14:09:42;5.47;;;4.00;;
5722;SDS011;2886;49.722;8.612;2023-06-10T14:12:08;6.00;;;3.93;;
5722;SDS011;2886;49.722;8.612;2023-06-10T14:14:34;7.30;;;4.03;;
5722;SDS011;2886;49.722;8.612;2023-06-10T14:17:01;5.30;;;4.10;;
5722;SDS011;2886;49.722;8.612;2023-06-10T14:19:28;6.17;;;4.70;;
5722;SDS011;2886;49.722;8.612;2023-06-10T14:21:53;7.07;;;4.80;;
5722;SDS011;2886;49.722;8.612;2023-06-10T14:24:20;6.13;;;5.23;;
5722;SDS011;2886;49.722;8.612;2023-06-10T14:26:46;5.23;;;4.63;;
5722;SDS011;2886;49.722;8.612;2023-06-10T14:29:11;4.60;;;4.20;;
5722;SDS011;2886;49.722;8.612;2023-06-10T14:31:39;6.43;;;4.97;;
5722;SDS011;2886;49.722;8.612;2023-06-10T14:34:05;6.93;;;4.67;;
5722;SDS011;2886;49.722;8.612;2023-06-10T14:36:33;5.03;;;4.53;;
5722;SDS011;2886;49.722;8.612;2023-06-10T14:38:58;6.53;;;4.13;;
5722;SDS011;2886;49.722;8.612;2023-06-10T14:41:24;5.67;;;4.50;;
5722;SDS011;2886;49.722;8.612;2023-06-10T14:43:51;4.57;;;4.10;;
5722;SDS011;2886;49.722;8.612;2023-06-10T14:46:16;4.10;;;3.70;;
5722;SDS011;2886;49.722;8.612;2023-06-10T14:48:42;4.40;;;4.00;;
5722;SDS011;2886;49.722;8.612;2023-06-10T14:51:08;4.50;;;4.10;;
5722;SDS011;2886;49.722;8.612;2023-06-10T14:53:33;4.50;;;4.10;;
5722;SDS011;2886;49.722;8.612;2023-06-10T14:55:59;4.47;;;4.07;;
5722;SDS011;2886;49.722;8.612;2023-06-10T14:58:25;4.73;;;4.33;;
5722;SDS011;2886;49.722;8.612;2023-06-10T15:00:51;6.20;;;4.87;;
5722;SDS011;2886;49.722;8.612;2023-06-10T15:03:16;4.67;;;4.17;;
5722;SDS011;2886;49.722;8.612;2023-06-10T15:05:42;6.90;;;5.03;;
5722;SDS011;2886;49.722;8.612;2023-06-10T15:08:08;5.33;;;4.13;;
5722;SDS011;2886;49.722;8.612;2023-06-10T15:10:33;4.80;;;4.30;;
5722;SDS011;2886;49.722;8.612;2023-06-10T15:12:59;7.20;;;4.70;;
5722;SDS011;2886;49.722;8.612;2023-06-10T15:15:25;5.17;;;4.60;;
5722;SDS011;2886;49.722;8.612;2023-06-10T15:17:51;4.70;;;4.27;;
5722;SDS011;2886;49.722;8.612;2023-06-10T15:20:18;6.67;;;4.70;;
5722;SDS011;2886;49.722;8.612;2023-06-10T15:22:43;5.37;;;4.83;;
5722;SDS011;2886;49.722;8.612;2023-06-10T15:25:09;7.67;;;4.70;;
5722;SDS011;2886;49.722;8.612;2023-06-10T15:27:35;7.33;;;4.10;;
5722;SDS011;2886;49.722;8.612;2023-06-10T15:30:00;10.60;;;4.17;;
5722;SDS011;2886;49.722;8.612;2023-06-10T15:32:27;7.37;;;5.10;;